sensor_id;sensor_type;location;lat;lon;timestamp;P1;durP1;ratioP1;P2;durP2;ratioP2
14961;SDS011;56489;53.166;10.864;2022-07-22T00:00:49;8.27;;;7.57;;
14961;SDS011;56489;53.166;10.864;2022-07-22T00:03:16;8.30;;;7.60;;
14961;SDS011;56489;53.166;10.864;2022-07-22T00:05:42;9.23;;;8.32;;
14961;SDS011;56489;53.166;10.864;2022-07-22T00:08:09;7.93;;;7.22;;
14961;SDS011;56489;53.166;10.864;2022-07-22T00:10:36;8.90;;;8.10;;
14961;SDS011;56489;53.166;10.864;2022-07-22T00:13:02;10.65;;;9.60;;
14961;SDS011;56489;53.166;10.864;2022-07-22T00:15:29;9.43;;;8.52;;
14961;SDS011;56489;53.166;10.864;2022-07-22T00:17:56;9.82;;;8.93;;
14961;SDS011;56489;53.166;10.864;2022-07-22T00:20:23;9.38;;;8.48;;
14961;SDS011;56489;53.166;10.864;2022-07-22T00:22:49;10.18;;;9.18;;
14961;SDS011;56489;53.166;10.864;2022-07-22T00:25:16;10.50;;;9.55;;
14961;SDS011;56489;53.166;10.864;2022-07-22T00:27:43;9.85;;;8.88;;
14961;SDS011;56489;53.166;10.864;2022-07-22T00:30:09;9.45;;;8.55;;
14961;SDS011;56489;53.166;10.864;2022-07-22T00:32:37;9.43;;;8.63;;
14961;SDS011;56489;53.166;10.864;2022-07-22T00:35:03;10.15;;;9.18;;
14961;SDS011;56489;53.166;10.864;2022-07-22T00:37:31;10.45;;;9.55;;
14961;SDS011;56489;53.166;10.864;2022-07-22T00:39:57;9.23;;;8.40;;
14961;SDS011;56489;53.166;10.864;2022-07-22T00:42:24;9.32;;;8.52;;
14961;SDS011;56489;53.166;10.864;2022-07-22T00:44:50;9.50;;;8.70;;
14961;SDS011;56489;53.166;10.864;2022-07-22T00:47:17;10.35;;;9.35;;
14961;SDS011;56489;53.166;10.864;2022-07-22T00:49:44;10.40;;;9.32;;
14961;SDS011;56489;53.166;10.864;2022-07-22T00:52:11;9.85;;;8.95;;
14961;SDS011;56489;53.166;10.864;2022-07-22T00:54:38;9.75;;;8.95;;
14961;SDS011;56489;53.166;10.864;2022-07-22T00:57:05;9.90;;;8.85;;
14961;SDS011;56489;53.166;10.864;2022-07-22T00:59:32;10.80;;;9.80;;
14961;SDS011;56489;53.166;10.864;2022-07-22T01:01:58;10.30;;;9.30;;
14961;SDS011;56489;53.166;10.864;2022-07-22T01:04:25;10.43;;;9.50;;
14961;SDS011;56489;53.166;10.864;2022-07-22T01:06:52;10.40;;;9.45;;
14961;SDS011;56489;53.166;10.864;2022-07-22T01:09:19;10.55;;;9.57;;
14961;SDS011;56489;53.166;10.864;2022-07-22T01:11:46;10.05;;;9.15;;
14961;SDS011;56489;53.166;10.864;2022-07-22T01:14:13;9.95;;;9.15;;
14961;SDS011;56489;53.166;10.864;2022-07-22T01:16:40;11.15;;;10.05;;
14961;SDS011;56489;53.166;10.864;2022-07-22T01:19:13;12.13;;;11.05;;
14961;SDS011;56489;53.166;10.864;2022-07-22T01:21:40;11.45;;;10.45;;
14961;SDS011;56489;53.166;10.864;2022-07-22T01:24:06;10.98;;;9.90;;
14961;SDS011;56489;53.166;10.864;2022-07-22T01:26:33;10.32;;;9.43;;
14961;SDS011;56489;53.166;10.864;2022-07-22T01:29:00;10.52;;;9.63;;
14961;SDS011;56489;53.166;10.864;2022-07-22T01:31:27;11.20;;;10.20;;
14961;SDS011;56489;53.166;10.864;2022-07-22T01:33:54;11.68;;;10.60;;
14961;SDS011;56489;53.166;10.864;2022-07-22T01:36:21;10.40;;;9.40;;
14961;SDS011;56489;53.166;10.864;2022-07-22T01:38:48;12.13;;;10.98;;
14961;SDS011;56489;53.166;10.864;2022-07-22T01:41:15;11.48;;;10.40;;
14961;SDS011;56489;53.166;10.864;2022-07-22T01:43:41;10.57;;;9.68;;
14961;SDS011;56489;53.166;10.864;2022-07-22T01:46:08;11.18;;;10.07;;
14961;SDS011;56489;53.166;10.864;2022-07-22T01:48:35;10.40;;;9.50;;
14961;SDS011;56489;53.166;10.864;2022-07-22T01:51:01;10.85;;;9.85;;
14961;SDS011;56489;53.166;10.864;2022-07-22T01:53:28;10.15;;;9.23;;
14961;SDS011;56489;53.166;10.864;2022-07-22T01:55:55;10.13;;;9.23;;
14961;SDS011;56489;53.166;10.864;2022-07-22T01:58:22;9.80;;;9.00;;
14961;SDS011;56489;53.166;10.864;2022-07-22T02:00:48;9.80;;;8.80;;
14961;SDS011;56489;53.166;10.864;2022-07-22T02:03:15;10.25;;;9.35;;
14961;SDS011;56489;53.166;10.864;2022-07-22T02:05:42;12.30;;;11.18;;
14961;SDS011;56489;53.166;10.864;2022-07-22T02:08:10;10.63;;;9.52;;
14961;SDS011;56489;53.166;10.864;2022-07-22T02:10:37;11.20;;;10.20;;
14961;SDS011;56489;53.166;10.864;2022-07-22T02:13:04;11.55;;;10.40;;
14961;SDS011;56489;53.166;10.864;2022-07-22T02:15:31;11.65;;;10.60;;
14961;SDS011;56489;53.166;10.864;2022-07-22T02:17:58;11.77;;;10.68;;
14961;SDS011;56489;53.166;10.864;2022-07-22T02:20:25;12.82;;;11.57;;
14961;SDS011;56489;53.166;10.864;2022-07-22T02:22:51;12.80;;;11.60;;
14961;SDS011;56489;53.166;10.864;2022-07-22T02:25:18;11.02;;;10.02;;
14961;SDS011;56489;53.166;10.864;2022-07-22T02:27:44;12.10;;;11.00;;
14961;SDS011;56489;53.166;10.864;2022-07-22T02:30:11;13.75;;;12.35;;
14961;SDS011;56489;53.166;10.864;2022-07-22T02:32:38;12.65;;;11.55;;
14961;SDS011;56489;53.166;10.864;2022-07-22T02:35:05;14.23;;;12.82;;
14961;SDS011;56489;53.166;10.864;2022-07-22T02:37:32;13.27;;;12.00;;
14961;SDS011;56489;53.166;10.864;2022-07-22T02:39:59;13.98;;;12.73;;
14961;SDS011;56489;53.166;10.864;2022-07-22T02:42:26;13.65;;;11.98;;
14961;SDS011;56489;53.166;10.864;2022-07-22T02:44:53;14.60;;;13.10;;
14961;SDS011;56489;53.166;10.864;2022-07-22T02:47:19;13.73;;;12.32;;
14961;SDS011;56489;53.166;10.864;2022-07-22T02:49:46;14.68;;;13.18;;
14961;SDS011;56489;53.166;10.864;2022-07-22T02:52:13;15.23;;;13.82;;
14961;SDS011;56489;53.166;10.864;2022-07-22T02:54:39;15.38;;;13.65;;
14961;SDS011;56489;53.166;10.864;2022-07-22T02:57:06;15.13;;;13.52;;
14961;SDS011;56489;53.166;10.864;2022-07-22T02:59:32;15.13;;;13.55;;
14961;SDS011;56489;53.166;10.864;2022-07-22T03:01:59;15.27;;;13.75;;
14961;SDS011;56489;53.166;10.864;2022-07-22T03:04:25;16.55;;;14.80;;
14961;SDS011;56489;53.166;10.864;2022-07-22T03:06:52;14.52;;;12.27;;
14961;SDS011;56489;53.166;10.864;2022-07-22T03:09:19;9.50;;;8.20;;
14961;SDS011;56489;53.166;10.864;2022-07-22T03:11:45;9.45;;;8.18;;
14961;SDS011;56489;53.166;10.864;2022-07-22T03:14:12;9.02;;;8.13;;
14961;SDS011;56489;53.166;10.864;2022-07-22T03:16:39;8.05;;;7.22;;
14961;SDS011;56489;53.166;10.864;2022-07-22T03:19:06;7.85;;;7.00;;
14961;SDS011;56489;53.166;10.864;2022-07-22T03:21:32;7.60;;;6.90;;
14961;SDS011;56489;53.166;10.864;2022-07-22T03:23:59;7.63;;;6.53;;
14961;SDS011;56489;53.166;10.864;2022-07-22T03:26:26;7.43;;;6.57;;
14961;SDS011;56489;53.166;10.864;2022-07-22T03:28:53;6.20;;;5.60;;
14961;SDS011;56489;53.166;10.864;2022-07-22T03:31:20;6.10;;;5.50;;
14961;SDS011;56489;53.166;10.864;2022-07-22T03:33:46;6.10;;;5.28;;
14961;SDS011;56489;53.166;10.864;2022-07-22T03:36:13;5.65;;;4.82;;
14961;SDS011;56489;53.166;10.864;2022-07-22T03:38:40;5.25;;;4.75;;
14961;SDS011;56489;53.166;10.864;2022-07-22T03:41:06;5.50;;;5.00;;
14961;SDS011;56489;53.166;10.864;2022-07-22T03:43:33;4.13;;;3.80;;
14961;SDS011;56489;53.166;10.864;2022-07-22T03:45:59;4.63;;;4.22;;
14961;SDS011;56489;53.166;10.864;2022-07-22T03:48:26;4.25;;;3.85;;
14961;SDS011;56489;53.166;10.864;2022-07-22T03:50:53;4.65;;;4.20;;
14961;SDS011;56489;53.166;10.864;2022-07-22T03:53:19;7.00;;;6.30;;
14961;SDS011;56489;53.166;10.864;2022-07-22T03:55:47;8.23;;;6.53;;
14961;SDS011;56489;53.166;10.864;2022-07-22T03:58:13;6.28;;;5.68;;
14961;SDS011;56489;53.166;10.864;2022-07-22T04:00:43;6.25;;;5.65;;
14961;SDS011;56489;53.166;10.864;2022-07-22T04:03:10;7.60;;;6.80;;
14961;SDS011;56489;53.166;10.864;2022-07-22T04:05:36;6.22;;;5.63;;
14961;SDS011;56489;53.166;10.864;2022-07-22T04:08:03;5.43;;;4.30;;
14961;SDS011;56489;53.166;10.864;2022-07-22T04:10:30;7.15;;;4.10;;
14961;SDS011;56489;53.166;10.864;2022-07-22T04:12:57;7.10;;;5.00;;
14961;SDS011;56489;53.166;10.864;2022-07-22T04:15:23;5.30;;;4.45;;
14961;SDS011;56489;53.166;10.864;2022-07-22T04:17:51;8.32;;;6.70;;
14961;SDS011;56489;53.166;10.864;2022-07-22T04:20:17;11.60;;;9.05;;
14961;SDS011;56489;53.166;10.864;2022-07-22T04:22:44;12.98;;;9.50;;
14961;SDS011;56489;53.166;10.864;2022-07-22T04:25:11;13.27;;;10.05;;
14961;SDS011;56489;53.166;10.864;2022-07-22T04:27:37;12.77;;;10.73;;
14961;SDS011;56489;53.166;10.864;2022-07-22T04:30:04;13.68;;;10.45;;
14961;SDS011;56489;53.166;10.864;2022-07-22T04:32:31;12.40;;;11.13;;
14961;SDS011;56489;53.166;10.864;2022-07-22T04:34:58;15.55;;;11.18;;
14961;SDS011;56489;53.166;10.864;2022-07-22T04:37:24;16.52;;;10.93;;
14961;SDS011;56489;53.166;10.864;2022-07-22T04:39:51;15.60;;;10.57;;
14961;SDS011;56489;53.166;10.864;2022-07-22T04:42:18;14.05;;;9.63;;
14961;SDS011;56489;53.166;10.864;2022-07-22T04:44:44;11.45;;;9.60;;
14961;SDS011;56489;53.166;10.864;2022-07-22T04:47:11;11.77;;;9.27;;
14961;SDS011;56489;53.166;10.864;2022-07-22T04:49:38;9.07;;;7.82;;
14961;SDS011;56489;53.166;10.864;2022-07-22T04:52:04;12.05;;;8.10;;
14961;SDS011;56489;53.166;10.864;2022-07-22T04:54:34;11.20;;;8.38;;
14961;SDS011;56489;53.166;10.864;2022-07-22T04:57:01;8.68;;;7.88;;
14961;SDS011;56489;53.166;10.864;2022-07-22T04:59:28;10.15;;;7.43;;
14961;SDS011;56489;53.166;10.864;2022-07-22T05:01:54;7.80;;;5.78;;
14961;SDS011;56489;53.166;10.864;2022-07-22T05:04:21;6.50;;;5.85;;
14961;SDS011;56489;53.166;10.864;2022-07-22T05:06:48;7.05;;;6.32;;
14961;SDS011;56489;53.166;10.864;2022-07-22T05:09:15;5.80;;;5.13;;
14961;SDS011;56489;53.166;10.864;2022-07-22T05:11:41;6.32;;;4.88;;
14961;SDS011;56489;53.166;10.864;2022-07-22T05:14:08;7.40;;;4.45;;
14961;SDS011;56489;53.166;10.864;2022-07-22T05:16:35;5.15;;;4.10;;
14961;SDS011;56489;53.166;10.864;2022-07-22T05:19:04;4.30;;;3.90;;
14961;SDS011;56489;53.166;10.864;2022-07-22T05:21:31;4.78;;;4.18;;
14961;SDS011;56489;53.166;10.864;2022-07-22T05:23:58;5.63;;;4.63;;
14961;SDS011;56489;53.166;10.864;2022-07-22T05:26:25;4.40;;;4.00;;
14961;SDS011;56489;53.166;10.864;2022-07-22T05:28:54;4.70;;;4.30;;
14961;SDS011;56489;53.166;10.864;2022-07-22T05:31:22;5.05;;;4.00;;
14961;SDS011;56489;53.166;10.864;2022-07-22T05:33:49;4.38;;;3.97;;
14961;SDS011;56489;53.166;10.864;2022-07-22T05:36:16;6.65;;;5.03;;
14961;SDS011;56489;53.166;10.864;2022-07-22T05:38:42;5.35;;;4.00;;
14961;SDS011;56489;53.166;10.864;2022-07-22T05:41:09;5.57;;;4.10;;
14961;SDS011;56489;53.166;10.864;2022-07-22T05:43:36;4.38;;;3.70;;
14961;SDS011;56489;53.166;10.864;2022-07-22T05:46:02;4.93;;;3.20;;
14961;SDS011;56489;53.166;10.864;2022-07-22T05:48:29;6.72;;;3.03;;
14961;SDS011;56489;53.166;10.864;2022-07-22T05:50:55;5.85;;;3.53;;
14961;SDS011;56489;53.166;10.864;2022-07-22T05:53:22;2.95;;;2.60;;
14961;SDS011;56489;53.166;10.864;2022-07-22T05:55:49;3.42;;;2.88;;
14961;SDS011;56489;53.166;10.864;2022-07-22T05:58:15;3.72;;;2.60;;
14961;SDS011;56489;53.166;10.864;2022-07-22T06:00:42;3.70;;;2.88;;
14961;SDS011;56489;53.166;10.864;2022-07-22T06:03:09;3.95;;;2.40;;
14961;SDS011;56489;53.166;10.864;2022-07-22T06:05:43;3.00;;;2.35;;
14961;SDS011;56489;53.166;10.864;2022-07-22T06:08:10;2.45;;;2.25;;
14961;SDS011;56489;53.166;10.864;2022-07-22T06:10:36;2.25;;;1.83;;
14961;SDS011;56489;53.166;10.864;2022-07-22T06:13:03;3.47;;;2.20;;
14961;SDS011;56489;53.166;10.864;2022-07-22T06:15:30;3.75;;;2.53;;
14961;SDS011;56489;53.166;10.864;2022-07-22T06:17:57;2.78;;;2.35;;
14961;SDS011;56489;53.166;10.864;2022-07-22T06:20:23;2.30;;;2.10;;
14961;SDS011;56489;53.166;10.864;2022-07-22T06:22:50;1.98;;;1.83;;
14961;SDS011;56489;53.166;10.864;2022-07-22T06:25:16;3.05;;;2.20;;
14961;SDS011;56489;53.166;10.864;2022-07-22T06:28:03;2.95;;;2.35;;
14961;SDS011;56489;53.166;10.864;2022-07-22T06:30:30;3.10;;;2.08;;
14961;SDS011;56489;53.166;10.864;2022-07-22T06:32:57;2.90;;;2.00;;
14961;SDS011;56489;53.166;10.864;2022-07-22T06:35:23;3.28;;;2.45;;
14961;SDS011;56489;53.166;10.864;2022-07-22T06:37:53;2.63;;;2.08;;
14961;SDS011;56489;53.166;10.864;2022-07-22T06:40:30;4.25;;;2.33;;
14961;SDS011;56489;53.166;10.864;2022-07-22T06:42:57;3.80;;;2.60;;
14961;SDS011;56489;53.166;10.864;2022-07-22T06:45:24;2.78;;;2.45;;
14961;SDS011;56489;53.166;10.864;2022-07-22T06:47:50;4.00;;;2.20;;
14961;SDS011;56489;53.166;10.864;2022-07-22T06:50:17;3.05;;;2.55;;
14961;SDS011;56489;53.166;10.864;2022-07-22T06:52:43;3.17;;;2.40;;
14961;SDS011;56489;53.166;10.864;2022-07-22T06:55:10;3.53;;;2.25;;
14961;SDS011;56489;53.166;10.864;2022-07-22T06:57:37;3.28;;;2.30;;
14961;SDS011;56489;53.166;10.864;2022-07-22T07:00:04;3.85;;;1.60;;
14961;SDS011;56489;53.166;10.864;2022-07-22T07:02:33;3.83;;;2.00;;
14961;SDS011;56489;53.166;10.864;2022-07-22T07:05:00;4.18;;;2.17;;
14961;SDS011;56489;53.166;10.864;2022-07-22T07:07:27;2.58;;;2.00;;
14961;SDS011;56489;53.166;10.864;2022-07-22T07:09:53;1.85;;;1.70;;
14961;SDS011;56489;53.166;10.864;2022-07-22T07:12:20;1.85;;;1.50;;
14961;SDS011;56489;53.166;10.864;2022-07-22T07:14:47;3.95;;;1.70;;
14961;SDS011;56489;53.166;10.864;2022-07-22T07:17:34;2.95;;;1.67;;
14961;SDS011;56489;53.166;10.864;2022-07-22T07:20:00;3.15;;;1.90;;
14961;SDS011;56489;53.166;10.864;2022-07-22T07:22:27;2.63;;;1.73;;
14961;SDS011;56489;53.166;10.864;2022-07-22T07:24:54;1.83;;;1.70;;
14961;SDS011;56489;53.166;10.864;2022-07-22T07:27:23;2.90;;;1.77;;
14961;SDS011;56489;53.166;10.864;2022-07-22T07:29:50;1.85;;;1.40;;
14961;SDS011;56489;53.166;10.864;2022-07-22T07:32:17;2.10;;;1.20;;
14961;SDS011;56489;53.166;10.864;2022-07-22T07:34:43;2.22;;;1.40;;
14961;SDS011;56489;53.166;10.864;2022-07-22T07:37:10;2.10;;;1.45;;
14961;SDS011;56489;53.166;10.864;2022-07-22T07:39:38;2.03;;;1.50;;
14961;SDS011;56489;53.166;10.864;2022-07-22T07:42:05;1.95;;;1.75;;
14961;SDS011;56489;53.166;10.864;2022-07-22T07:44:31;2.55;;;1.58;;
14961;SDS011;56489;53.166;10.864;2022-07-22T07:46:58;3.08;;;1.92;;
14961;SDS011;56489;53.166;10.864;2022-07-22T07:49:25;4.03;;;1.98;;
14961;SDS011;56489;53.166;10.864;2022-07-22T07:51:51;3.83;;;1.90;;
14961;SDS011;56489;53.166;10.864;2022-07-22T07:54:21;3.55;;;1.70;;
14961;SDS011;56489;53.166;10.864;2022-07-22T07:56:48;4.22;;;2.35;;
14961;SDS011;56489;53.166;10.864;2022-07-22T07:59:16;3.17;;;2.85;;
14961;SDS011;56489;53.166;10.864;2022-07-22T08:01:54;4.13;;;1.65;;
14961;SDS011;56489;53.166;10.864;2022-07-22T08:04:24;2.17;;;1.77;;
14961;SDS011;56489;53.166;10.864;2022-07-22T08:07:05;3.00;;;1.67;;
14961;SDS011;56489;53.166;10.864;2022-07-22T08:09:32;4.97;;;1.98;;
14961;SDS011;56489;53.166;10.864;2022-07-22T08:12:01;2.42;;;1.75;;
14961;SDS011;56489;53.166;10.864;2022-07-22T08:14:29;2.03;;;1.38;;
14961;SDS011;56489;53.166;10.864;2022-07-22T08:16:56;2.83;;;1.67;;
14961;SDS011;56489;53.166;10.864;2022-07-22T08:19:24;4.05;;;1.90;;
14961;SDS011;56489;53.166;10.864;2022-07-22T08:21:50;2.30;;;1.73;;
14961;SDS011;56489;53.166;10.864;2022-07-22T08:24:17;4.43;;;1.65;;
14961;SDS011;56489;53.166;10.864;2022-07-22T08:26:44;3.53;;;1.60;;
14961;SDS011;56489;53.166;10.864;2022-07-22T08:29:10;2.38;;;1.70;;
14961;SDS011;56489;53.166;10.864;2022-07-22T08:31:37;4.82;;;2.03;;
14961;SDS011;56489;53.166;10.864;2022-07-22T08:34:04;7.03;;;1.83;;
14961;SDS011;56489;53.166;10.864;2022-07-22T08:36:31;4.35;;;2.00;;
14961;SDS011;56489;53.166;10.864;2022-07-22T08:38:58;3.25;;;1.60;;
14961;SDS011;56489;53.166;10.864;2022-07-22T08:41:26;5.15;;;2.03;;
14961;SDS011;56489;53.166;10.864;2022-07-22T08:43:54;2.90;;;1.80;;
14961;SDS011;56489;53.166;10.864;2022-07-22T08:46:22;4.13;;;1.63;;
14961;SDS011;56489;53.166;10.864;2022-07-22T08:48:49;4.03;;;1.80;;
14961;SDS011;56489;53.166;10.864;2022-07-22T08:51:16;4.68;;;1.73;;
14961;SDS011;56489;53.166;10.864;2022-07-22T08:53:42;4.90;;;2.17;;
14961;SDS011;56489;53.166;10.864;2022-07-22T08:56:10;3.40;;;2.10;;
14961;SDS011;56489;53.166;10.864;2022-07-22T08:58:38;3.10;;;2.17;;
14961;SDS011;56489;53.166;10.864;2022-07-22T09:03:52;6.05;;;2.28;;
14961;SDS011;56489;53.166;10.864;2022-07-22T09:06:23;6.78;;;1.90;;
14961;SDS011;56489;53.166;10.864;2022-07-22T09:08:54;3.17;;;1.85;;
14961;SDS011;56489;53.166;10.864;2022-07-22T09:11:26;5.55;;;2.20;;
14961;SDS011;56489;53.166;10.864;2022-07-22T09:13:57;3.85;;;2.10;;
14961;SDS011;56489;53.166;10.864;2022-07-22T09:16:46;3.25;;;2.10;;
14961;SDS011;56489;53.166;10.864;2022-07-22T09:19:14;3.92;;;2.38;;
14961;SDS011;56489;53.166;10.864;2022-07-22T09:21:42;3.40;;;2.10;;
14961;SDS011;56489;53.166;10.864;2022-07-22T09:26:58;4.05;;;1.90;;
14961;SDS011;56489;53.166;10.864;2022-07-22T09:29:26;3.38;;;1.73;;
14961;SDS011;56489;53.166;10.864;2022-07-22T09:32:02;3.25;;;1.63;;
14961;SDS011;56489;53.166;10.864;2022-07-22T09:34:30;4.85;;;1.92;;
14961;SDS011;56489;53.166;10.864;2022-07-22T09:37:00;3.85;;;2.08;;
14961;SDS011;56489;53.166;10.864;2022-07-22T09:39:28;5.50;;;2.58;;
14961;SDS011;56489;53.166;10.864;2022-07-22T09:41:56;2.25;;;2.05;;
14961;SDS011;56489;53.166;10.864;2022-07-22T09:44:28;3.20;;;2.13;;
14961;SDS011;56489;53.166;10.864;2022-07-22T09:46:54;2.35;;;1.83;;
14961;SDS011;56489;53.166;10.864;2022-07-22T09:49:34;4.28;;;1.95;;
14961;SDS011;56489;53.166;10.864;2022-07-22T09:52:03;2.72;;;1.90;;
14961;SDS011;56489;53.166;10.864;2022-07-22T09:54:30;4.82;;;1.95;;
14961;SDS011;56489;53.166;10.864;2022-07-22T09:56:58;3.42;;;1.90;;
14961;SDS011;56489;53.166;10.864;2022-07-22T09:59:25;7.60;;;2.15;;
14961;SDS011;56489;53.166;10.864;2022-07-22T10:01:55;4.07;;;2.38;;
14961;SDS011;56489;53.166;10.864;2022-07-22T10:04:25;4.57;;;2.22;;
14961;SDS011;56489;53.166;10.864;2022-07-22T10:06:57;7.97;;;2.63;;
14961;SDS011;56489;53.166;10.864;2022-07-22T10:09:25;5.97;;;2.17;;
14961;SDS011;56489;53.166;10.864;2022-07-22T10:11:53;6.65;;;2.28;;
14961;SDS011;56489;53.166;10.864;2022-07-22T10:14:21;3.08;;;2.28;;
14961;SDS011;56489;53.166;10.864;2022-07-22T10:16:48;4.82;;;2.03;;
14961;SDS011;56489;53.166;10.864;2022-07-22T10:19:15;3.50;;;2.20;;
14961;SDS011;56489;53.166;10.864;2022-07-22T10:21:42;3.90;;;2.00;;
14961;SDS011;56489;53.166;10.864;2022-07-22T10:24:13;2.92;;;2.45;;
14961;SDS011;56489;53.166;10.864;2022-07-22T10:26:55;4.00;;;2.50;;
14961;SDS011;56489;53.166;10.864;2022-07-22T10:29:26;3.40;;;1.83;;
14961;SDS011;56489;53.166;10.864;2022-07-22T10:37:36;8.05;;;2.53;;
14961;SDS011;56489;53.166;10.864;2022-07-22T10:45:33;2.30;;;1.88;;
14961;SDS011;56489;53.166;10.864;2022-07-22T10:48:10;5.82;;;2.45;;
14961;SDS011;56489;53.166;10.864;2022-07-22T10:50:44;3.65;;;2.45;;
14961;SDS011;56489;53.166;10.864;2022-07-22T10:53:14;3.50;;;1.92;;
14961;SDS011;56489;53.166;10.864;2022-07-22T10:56:15;5.72;;;2.20;;
14961;SDS011;56489;53.166;10.864;2022-07-22T10:59:25;5.10;;;2.20;;
14961;SDS011;56489;53.166;10.864;2022-07-22T11:01:45;5.55;;;2.38;;
14961;SDS011;56489;53.166;10.864;2022-07-22T11:04:20;3.78;;;2.13;;
14961;SDS011;56489;53.166;10.864;2022-07-22T11:06:49;3.45;;;2.20;;
14961;SDS011;56489;53.166;10.864;2022-07-22T11:09:18;6.68;;;2.35;;
14961;SDS011;56489;53.166;10.864;2022-07-22T11:11:53;4.53;;;2.53;;
14961;SDS011;56489;53.166;10.864;2022-07-22T11:17:03;3.42;;;2.53;;
14961;SDS011;56489;53.166;10.864;2022-07-22T11:19:35;5.88;;;2.17;;
14961;SDS011;56489;53.166;10.864;2022-07-22T11:22:07;3.90;;;2.10;;
14961;SDS011;56489;53.166;10.864;2022-07-22T11:24:39;2.95;;;1.77;;
14961;SDS011;56489;53.166;10.864;2022-07-22T11:27:11;3.95;;;2.28;;
14961;SDS011;56489;53.166;10.864;2022-07-22T11:29:40;4.32;;;2.35;;
14961;SDS011;56489;53.166;10.864;2022-07-22T11:32:12;3.38;;;1.80;;
14961;SDS011;56489;53.166;10.864;2022-07-22T11:34:41;2.83;;;2.03;;
14961;SDS011;56489;53.166;10.864;2022-07-22T11:37:11;4.07;;;2.30;;
14961;SDS011;56489;53.166;10.864;2022-07-22T11:39:39;4.15;;;1.85;;
14961;SDS011;56489;53.166;10.864;2022-07-22T11:42:06;3.00;;;2.10;;
14961;SDS011;56489;53.166;10.864;2022-07-22T11:44:36;4.82;;;2.63;;
14961;SDS011;56489;53.166;10.864;2022-07-22T11:47:04;2.05;;;1.77;;
14961;SDS011;56489;53.166;10.864;2022-07-22T11:49:33;5.43;;;2.35;;
14961;SDS011;56489;53.166;10.864;2022-07-22T11:52:02;5.25;;;2.17;;
14961;SDS011;56489;53.166;10.864;2022-07-22T11:54:30;5.10;;;2.25;;
14961;SDS011;56489;53.166;10.864;2022-07-22T11:57:01;2.67;;;1.70;;
14961;SDS011;56489;53.166;10.864;2022-07-22T11:59:28;3.60;;;2.00;;
14961;SDS011;56489;53.166;10.864;2022-07-22T12:01:55;3.08;;;1.77;;
14961;SDS011;56489;53.166;10.864;2022-07-22T12:04:22;3.88;;;2.08;;
14961;SDS011;56489;53.166;10.864;2022-07-22T12:06:51;2.50;;;1.70;;
14961;SDS011;56489;53.166;10.864;2022-07-22T12:09:21;3.28;;;2.13;;
14961;SDS011;56489;53.166;10.864;2022-07-22T12:11:50;1.95;;;1.75;;
14961;SDS011;56489;53.166;10.864;2022-07-22T12:14:21;3.65;;;2.25;;
14961;SDS011;56489;53.166;10.864;2022-07-22T12:16:54;2.90;;;1.88;;
14961;SDS011;56489;53.166;10.864;2022-07-22T12:19:27;3.17;;;2.00;;
14961;SDS011;56489;53.166;10.864;2022-07-22T12:21:59;3.55;;;1.95;;
14961;SDS011;56489;53.166;10.864;2022-07-22T12:24:37;2.58;;;1.98;;
14961;SDS011;56489;53.166;10.864;2022-07-22T12:27:15;2.80;;;2.08;;
14961;SDS011;56489;53.166;10.864;2022-07-22T12:29:44;2.63;;;2.00;;
14961;SDS011;56489;53.166;10.864;2022-07-22T12:32:16;3.75;;;1.88;;
14961;SDS011;56489;53.166;10.864;2022-07-22T12:37:42;3.00;;;1.80;;
14961;SDS011;56489;53.166;10.864;2022-07-22T12:40:12;3.58;;;1.70;;
14961;SDS011;56489;53.166;10.864;2022-07-22T12:42:45;2.58;;;1.90;;
14961;SDS011;56489;53.166;10.864;2022-07-22T12:45:25;4.70;;;2.00;;
14961;SDS011;56489;53.166;10.864;2022-07-22T12:47:54;3.20;;;2.40;;
14961;SDS011;56489;53.166;10.864;2022-07-22T12:50:29;3.03;;;1.80;;
14961;SDS011;56489;53.166;10.864;2022-07-22T12:53:07;5.20;;;2.00;;
14961;SDS011;56489;53.166;10.864;2022-07-22T12:55:43;4.28;;;2.20;;
14961;SDS011;56489;53.166;10.864;2022-07-22T12:58:25;2.42;;;2.05;;
14961;SDS011;56489;53.166;10.864;2022-07-22T13:00:54;1.95;;;1.50;;
14961;SDS011;56489;53.166;10.864;2022-07-22T13:03:25;2.80;;;1.90;;
14961;SDS011;56489;53.166;10.864;2022-07-22T13:05:55;2.30;;;1.63;;
14961;SDS011;56489;53.166;10.864;2022-07-22T13:08:24;1.67;;;1.50;;
14961;SDS011;56489;53.166;10.864;2022-07-22T13:11:05;5.05;;;1.60;;
14961;SDS011;56489;53.166;10.864;2022-07-22T13:13:31;2.17;;;1.60;;
14961;SDS011;56489;53.166;10.864;2022-07-22T13:15:58;3.83;;;1.95;;
14961;SDS011;56489;53.166;10.864;2022-07-22T13:18:25;2.35;;;2.00;;
14961;SDS011;56489;53.166;10.864;2022-07-22T13:20:51;3.53;;;1.88;;
14961;SDS011;56489;53.166;10.864;2022-07-22T13:23:18;3.88;;;2.05;;
14961;SDS011;56489;53.166;10.864;2022-07-22T13:25:44;3.45;;;1.55;;
14961;SDS011;56489;53.166;10.864;2022-07-22T13:28:11;2.08;;;1.58;;
14961;SDS011;56489;53.166;10.864;2022-07-22T13:30:37;3.47;;;1.70;;
14961;SDS011;56489;53.166;10.864;2022-07-22T13:33:04;3.15;;;2.00;;
14961;SDS011;56489;53.166;10.864;2022-07-22T13:35:31;2.80;;;2.20;;
14961;SDS011;56489;53.166;10.864;2022-07-22T13:37:58;2.75;;;1.73;;
14961;SDS011;56489;53.166;10.864;2022-07-22T13:40:25;2.13;;;1.65;;
14961;SDS011;56489;53.166;10.864;2022-07-22T13:42:51;3.03;;;2.00;;
14961;SDS011;56489;53.166;10.864;2022-07-22T13:45:18;4.60;;;1.63;;
14961;SDS011;56489;53.166;10.864;2022-07-22T13:47:46;3.30;;;1.80;;
14961;SDS011;56489;53.166;10.864;2022-07-22T13:50:12;2.75;;;1.95;;
14961;SDS011;56489;53.166;10.864;2022-07-22T13:52:39;4.00;;;1.90;;
14961;SDS011;56489;53.166;10.864;2022-07-22T13:55:06;5.07;;;2.20;;
14961;SDS011;56489;53.166;10.864;2022-07-22T13:57:33;3.63;;;2.08;;
14961;SDS011;56489;53.166;10.864;2022-07-22T14:00:00;2.80;;;2.08;;
14961;SDS011;56489;53.166;10.864;2022-07-22T14:02:29;1.98;;;1.50;;
14961;SDS011;56489;53.166;10.864;2022-07-22T14:04:55;1.90;;;1.80;;
14961;SDS011;56489;53.166;10.864;2022-07-22T14:07:22;2.50;;;1.98;;
14961;SDS011;56489;53.166;10.864;2022-07-22T14:09:49;1.80;;;1.67;;
14961;SDS011;56489;53.166;10.864;2022-07-22T14:12:15;3.95;;;1.88;;
14961;SDS011;56489;53.166;10.864;2022-07-22T14:14:43;4.47;;;1.98;;
14961;SDS011;56489;53.166;10.864;2022-07-22T14:17:10;3.47;;;1.73;;
14961;SDS011;56489;53.166;10.864;2022-07-22T14:19:38;3.92;;;2.17;;
14961;SDS011;56489;53.166;10.864;2022-07-22T14:22:04;2.58;;;1.90;;
14961;SDS011;56489;53.166;10.864;2022-07-22T14:24:31;3.58;;;1.85;;
14961;SDS011;56489;53.166;10.864;2022-07-22T14:26:57;3.33;;;1.80;;
14961;SDS011;56489;53.166;10.864;2022-07-22T14:29:24;2.97;;;1.92;;
14961;SDS011;56489;53.166;10.864;2022-07-22T14:31:51;3.72;;;2.00;;
14961;SDS011;56489;53.166;10.864;2022-07-22T14:34:17;3.80;;;2.20;;
14961;SDS011;56489;53.166;10.864;2022-07-22T14:36:45;3.15;;;2.05;;
14961;SDS011;56489;53.166;10.864;2022-07-22T14:39:12;5.32;;;1.98;;
14961;SDS011;56489;53.166;10.864;2022-07-22T14:41:39;3.10;;;2.22;;
14961;SDS011;56489;53.166;10.864;2022-07-22T14:44:06;2.70;;;1.98;;
14961;SDS011;56489;53.166;10.864;2022-07-22T14:46:32;2.38;;;1.88;;
14961;SDS011;56489;53.166;10.864;2022-07-22T14:48:59;2.45;;;1.77;;
14961;SDS011;56489;53.166;10.864;2022-07-22T14:51:26;2.22;;;2.03;;
14961;SDS011;56489;53.166;10.864;2022-07-22T14:53:52;2.10;;;1.90;;
14961;SDS011;56489;53.166;10.864;2022-07-22T14:56:19;2.30;;;2.10;;
14961;SDS011;56489;53.166;10.864;2022-07-22T14:58:46;2.75;;;2.20;;